Time;durP1;ratioP1;P1;durP2;ratioP2;P2;SDS_P1;SDS_P2;PMS_P1;PMS_P2;Temp;Humidity;BMP_temperature;BMP_pressure;BME280_temperature;BME280_humidity;BME280_pressure;Samples;Min_cycle;Max_cycle;Signal;HPM_P1;HPM_P2
2021/12/03 00:02:16;;;;;;;22.17;10.93;;;0.50;99.90;;;;;;6686560;88;20355;-76
2021/12/03 00:12:17;;;;;;;23.50;10.60;;;0.90;99.90;;;;;;6688501;88;20187;-77
2021/12/03 00:22:17;;;;;;;18.80;9.25;;;1.00;99.90;;;;;;6697734;88;21009;-76
2021/12/03 00:32:18;;;;;;;15.00;7.35;;;0.80;99.90;;;;;;6692537;88;20325;-76
2021/12/03 00:42:19;;;;;;;19.67;9.05;;;1.10;99.90;;;;;;6700374;88;20280;-76
2021/12/03 00:52:19;;;;;;;21.08;9.40;;;1.00;99.90;;;;;;6690005;88;20163;-76
2021/12/03 01:02:20;;;;;;;24.42;10.23;;;0.90;99.90;;;;;;6687684;88;20221;-76
2021/12/03 01:12:20;;;;;;;20.60;9.52;;;0.90;99.90;;;;;;6695114;88;20723;-76
2021/12/03 01:22:21;;;;;;;19.80;8.95;;;0.80;99.90;;;;;;6692937;88;21510;-76
2021/12/03 01:32:21;;;;;;;21.95;9.07;;;0.90;99.90;;;;;;6702447;88;20239;-76
2021/12/03 01:42:22;;;;;;;21.73;9.38;;;0.80;99.90;;;;;;6693704;88;20645;-76
2021/12/03 01:52:23;;;;;;;22.62;9.02;;;0.70;99.90;;;;;;6695694;88;20258;-76
2021/12/03 02:02:24;;;;;;;17.65;8.13;;;0.90;99.90;;;;;;6692020;88;20203;-76
2021/12/03 02:12:24;;;;;;;17.23;8.07;;;0.70;99.90;;;;;;6693771;88;20192;-75
2021/12/03 02:22:26;;;;;;;16.60;7.90;;;0.70;99.90;;;;;;6691689;88;20213;-76
2021/12/03 02:32:26;;;;;;;20.95;8.43;;;0.70;99.90;;;;;;6692860;88;20573;-76
2021/12/03 02:42:27;;;;;;;15.45;7.50;;;0.50;99.90;;;;;;6694055;88;20222;-76
2021/12/03 02:52:27;;;;;;;20.12;7.60;;;0.20;99.90;;;;;;6693151;88;20206;-76
2021/12/03 03:02:28;;;;;;;18.30;7.78;;;0.20;99.90;;;;;;6692943;88;20658;-76
2021/12/03 03:12:28;;;;;;;16.20;7.18;;;0.40;99.90;;;;;;6693693;88;20200;-77
2021/12/03 03:22:29;;;;;;;13.23;5.65;;;0.40;99.90;;;;;;6693284;88;20200;-76
2021/12/03 03:32:30;;;;;;;15.77;6.22;;;0.40;99.90;;;;;;6692485;88;20186;-76
2021/12/03 03:42:30;;;;;;;13.40;5.97;;;0.60;99.90;;;;;;6692427;88;20215;-76
2021/12/03 03:52:31;;;;;;;9.93;5.28;;;0.80;99.90;;;;;;6691756;88;20713;-76
2021/12/03 04:02:32;;;;;;;10.93;5.32;;;0.80;99.90;;;;;;6695002;88;20183;-76
2021/12/03 04:12:33;;;;;;;12.30;5.90;;;0.90;99.90;;;;;;6690134;88;20694;-76
2021/12/03 04:22:34;;;;;;;18.85;7.95;;;1.00;99.90;;;;;;6692816;88;20265;-76
2021/12/03 04:32:35;;;;;;;15.05;6.30;;;0.90;99.90;;;;;;6698558;88;20203;-77
2021/12/03 04:42:36;;;;;;;17.85;7.22;;;1.00;99.90;;;;;;6703776;88;20202;-76
2021/12/03 04:52:37;;;;;;;12.48;5.93;;;0.90;99.90;;;;;;6700186;88;20235;-76
2021/12/03 05:02:37;;;;;;;13.43;5.40;;;0.90;99.90;;;;;;6695956;88;20208;-76
2021/12/03 05:12:38;;;;;;;14.98;5.10;;;1.00;99.90;;;;;;6697843;88;20203;-77
2021/12/03 05:22:38;;;;;;;10.32;4.30;;;1.10;99.90;;;;;;6700377;88;20756;-76
2021/12/03 05:32:39;;;;;;;6.43;3.47;;;1.40;99.90;;;;;;6701520;88;20195;-77
2021/12/03 05:42:42;;;;;;;11.90;4.28;;;1.60;99.90;;;;;;6702423;88;20175;-77
2021/12/03 05:52:43;;;;;;;13.15;4.30;;;1.70;99.90;;;;;;6698060;88;20828;-76
2021/12/03 06:02:44;;;;;;;10.65;3.87;;;1.90;99.90;;;;;;6705729;88;20226;-76
2021/12/03 06:12:46;;;;;;;10.35;3.45;;;2.20;99.90;;;;;;6699503;88;20205;-77
2021/12/03 06:22:47;;;;;;;9.23;3.37;;;2.40;99.90;;;;;;6702424;88;20310;-77
2021/12/03 06:32:47;;;;;;;8.98;3.62;;;2.30;99.90;;;;;;6701014;88;20256;-76
2021/12/03 06:42:48;;;;;;;6.53;3.08;;;2.40;99.90;;;;;;6693238;88;20221;-75
2021/12/03 06:52:56;;;;;;;8.05;3.12;;;2.50;99.90;;;;;;6700111;88;20713;-74
2021/12/03 07:02:57;;;;;;;10.30;3.30;;;2.40;99.90;;;;;;6700075;88;20486;-75
2021/12/03 07:12:58;;;;;;;11.82;3.10;;;2.50;99.90;;;;;;6699653;88;20306;-75
2021/12/03 07:22:58;;;;;;;8.82;2.85;;;2.50;99.90;;;;;;6698589;88;20683;-75
2021/12/03 07:32:59;;;;;;;7.22;2.65;;;2.70;99.90;;;;;;6702487;88;20328;-75
2021/12/03 07:42:59;;;;;;;6.97;2.70;;;2.50;99.90;;;;;;6692227;88;20196;-75
2021/12/03 07:53:00;;;;;;;5.87;2.25;;;2.60;99.90;;;;;;6699393;88;20190;-76
2021/12/03 08:03:01;;;;;;;13.07;2.58;;;2.60;99.90;;;;;;6697153;88;20746;-75
2021/12/03 08:13:02;;;;;;;11.30;2.53;;;2.60;99.90;;;;;;6686529;88;20226;-75
2021/12/03 08:23:03;;;;;;;11.05;2.50;;;2.60;99.90;;;;;;6690927;88;20215;-75
2021/12/03 08:33:04;;;;;;;10.23;2.20;;;2.70;99.90;;;;;;6690652;88;20186;-75
2021/12/03 08:43:05;;;;;;;12.75;2.22;;;2.80;99.90;;;;;;6702408;88;20383;-75
2021/12/03 09:03:15;;;;;;;8.02;2.17;;;3.10;99.90;;;;;;6686681;88;20187;-75
2021/12/03 09:13:16;;;;;;;8.45;1.70;;;3.20;99.90;;;;;;6694232;88;20202;-75
2021/12/03 09:23:25;;;;;;;4.65;1.42;;;3.20;99.90;;;;;;6703874;88;20183;-74
2021/12/03 09:33:29;;;;;;;10.20;1.50;;;3.50;99.90;;;;;;6682591;88;21106;-74
2021/12/03 09:43:29;;;;;;;7.45;1.27;;;3.70;99.90;;;;;;6690237;88;20346;-75
2021/12/03 10:04:36;;;;;;;6.90;1.50;;;3.90;99.90;;;;;;6674367;88;20344;-75
2021/12/03 10:35:02;;;;;;;5.47;1.77;;;4.50;99.90;;;;;;6687810;88;20316;-75
2021/12/03 10:45:37;;;;;;;5.65;1.55;;;4.20;99.90;;;;;;6692417;88;20209;-75
2021/12/03 11:16:48;;;;;;;6.50;1.23;;;4.30;99.90;;;;;;6693508;88;20171;-75
2021/12/03 11:47:32;;;;;;;3.58;1.20;;;4.50;99.90;;;;;;6693939;88;20755;-74
2021/12/03 12:39:56;;;;;;;3.80;1.25;;;4.50;99.90;;;;;;6689645;88;21171;-75
2021/12/03 14:43:45;;;;;;;3.95;1.55;;;4.40;99.90;;;;;;6684416;88;20215;-74
2021/12/03 15:04:03;;;;;;;4.93;1.10;;;4.40;99.90;;;;;;6685344;88;20668;-75
2021/12/03 16:04:57;;;;;;;3.03;1.50;;;4.20;99.90;;;;;;6689525;88;20236;-76
2021/12/03 16:15:14;;;;;;;6.57;1.70;;;4.20;99.90;;;;;;6686703;88;20183;-75
2021/12/03 16:25:31;;;;;;;4.75;1.50;;;4.10;99.90;;;;;;6690668;88;20753;-76
2021/12/03 16:56:00;;;;;;;6.03;1.65;;;4.10;99.90;;;;;;6686405;88;20801;-75
2021/12/03 17:57:56;;;;;;;7.47;1.60;;;4.20;99.90;;;;;;6689158;88;20686;-74
2021/12/03 18:08:05;;;;;;;5.55;1.60;;;4.30;99.90;;;;;;6687941;88;20669;-74
2021/12/03 18:49:40;;;;;;;3.35;1.20;;;4.10;99.90;;;;;;6687931;88;20223;-74
2021/12/03 18:59:12;;;;;;;2.83;1.00;;;4.20;99.90;;;;;;6681857;88;20218;-74
2021/12/03 19:09:18;;;;;;;1.12;0.50;;;4.40;99.90;;;;;;6684523;88;20625;-74
2021/12/03 19:19:19;;;;;;;1.53;0.73;;;4.50;99.90;;;;;;6682737;88;20175;-74
2021/12/03 19:29:20;;;;;;;1.02;0.50;;;4.50;99.90;;;;;;6684651;88;20616;-74
2021/12/03 19:39:24;;;;;;;4.85;1.20;;;4.50;99.90;;;;;;6682074;88;20213;-74
2021/12/03 19:59:28;;;;;;;2.15;0.70;;;4.60;99.90;;;;;;6683007;88;20339;-75
2021/12/03 20:09:38;;;;;;;1.12;0.52;;;4.60;99.90;;;;;;6687079;88;20249;-74
2021/12/03 20:19:40;;;;;;;1.05;0.40;;;4.60;99.90;;;;;;6683845;88;20187;-74
2021/12/03 20:29:49;;;;;;;2.12;0.90;;;4.60;99.90;;;;;;6684773;88;20183;-75
2021/12/03 20:39:53;;;;;;;1.30;0.60;;;4.60;99.90;;;;;;6684920;88;20239;-75
2021/12/03 20:50:06;;;;;;;1.90;0.70;;;4.50;99.90;;;;;;6683940;88;22118;-75
2021/12/03 21:10:13;;;;;;;1.30;0.50;;;4.50;99.90;;;;;;6681991;88;20304;-74
2021/12/03 21:20:28;;;;;;;1.17;0.50;;;4.50;99.90;;;;;;6677268;88;20344;-75
2021/12/03 21:50:51;;;;;;;1.20;0.60;;;4.50;99.90;;;;;;6686550;88;20307;-74
2021/12/03 22:00:52;;;;;;;1.15;0.50;;;4.50;99.90;;;;;;6684959;88;20204;-74
2021/12/03 22:10:52;;;;;;;1.20;0.60;;;4.40;99.90;;;;;;6686401;88;20286;-75
2021/12/03 22:20:56;;;;;;;1.27;0.50;;;4.40;99.90;;;;;;6683591;88;20186;-74
2021/12/03 22:30:56;;;;;;;1.67;0.60;;;4.40;99.90;;;;;;6682635;88;20191;-74
2021/12/03 22:40:57;;;;;;;1.10;0.50;;;4.40;99.90;;;;;;6685464;88;20611;-74
2021/12/03 23:01:10;;;;;;;0.97;0.53;;;4.50;99.90;;;;;;6690785;88;20198;-75
2021/12/03 23:11:11;;;;;;;2.17;0.98;;;4.50;99.90;;;;;;6689198;88;20682;-74
2021/12/03 23:21:12;;;;;;;1.45;0.80;;;4.60;99.90;;;;;;6701994;88;20237;-75
2021/12/03 23:31:12;;;;;;;1.35;0.70;;;4.70;99.90;;;;;;6694527;77;20212;-76
2021/12/03 23:41:13;;;;;;;1.60;0.70;;;4.70;99.90;;;;;;6705906;88;20190;-75
2021/12/03 23:51:14;;;;;;;2.50;0.60;;;4.70;99.90;;;;;;6704289;88;20581;-76
